Time;durP1;ratioP1;P1;durP2;ratioP2;P2;SDS_P1;SDS_P2;PMS_P1;PMS_P2;Temp;Humidity;BMP_temperature;BMP_pressure;BME280_temperature;BME280_humidity;BME280_pressure;Samples;Min_cycle;Max_cycle;Signal;HPM_P1;HPM_P2
2022/03/23 00:01:03;;;;;;;29.02;15.73;;;;;;;;;;6182958;23;20013;-50
2022/03/23 00:03:28;;;;;;;24.73;14.13;;;;;;;;;;6183230;23;20300;-50
2022/03/23 00:05:54;;;;;;;24.08;13.35;;;;;;;;;;6184784;23;20009;-51
2022/03/23 00:08:21;;;;;;;49.40;15.73;;;;;;;;;;6183603;23;20013;-48
2022/03/23 00:10:46;;;;;;;24.00;14.98;;;;;;;;;;6184520;23;20028;-49
2022/03/23 00:13:12;;;;;;;24.80;13.68;;;;;;;;;;6182874;23;20005;-52
2022/03/23 00:15:38;;;;;;;28.40;14.45;;;;;;;;;;6183940;23;20038;-49
2022/03/23 00:18:03;;;;;;;27.08;14.77;;;;;;;;;;6183538;23;20084;-50
2022/03/23 00:20:29;;;;;;;29.55;14.40;;;;;;;;;;6184219;23;20101;-51
2022/03/23 00:22:54;;;;;;;26.33;15.18;;;;;;;;;;6183711;23;20007;-54
2022/03/23 00:25:20;;;;;;;26.70;14.77;;;;;;;;;;6184977;23;20014;-49
2022/03/23 00:27:45;;;;;;;24.15;13.52;;;;;;;;;;6183251;23;20057;-53
2022/03/23 00:30:11;;;;;;;25.15;15.20;;;;;;;;;;6184065;23;20493;-50
2022/03/23 00:32:36;;;;;;;30.48;14.65;;;;;;;;;;6183584;23;20062;-53
2022/03/23 00:35:02;;;;;;;23.17;14.07;;;;;;;;;;6184292;23;20028;-51
2022/03/23 00:37:28;;;;;;;28.95;15.70;;;;;;;;;;6183024;23;20040;-53
2022/03/23 00:39:53;;;;;;;30.33;14.27;;;;;;;;;;6184312;23;20419;-53
2022/03/23 00:42:19;;;;;;;29.08;14.95;;;;;;;;;;6156708;23;20009;-51
2022/03/23 00:44:44;;;;;;;23.98;14.75;;;;;;;;;;6184246;23;20005;-50
2022/03/23 00:47:09;;;;;;;24.77;15.52;;;;;;;;;;6182922;23;20021;-51
2022/03/23 00:49:35;;;;;;;27.75;16.77;;;;;;;;;;6151512;23;20025;-52
2022/03/23 00:52:05;;;;;;;33.10;15.13;;;;;;;;;;6152888;23;20435;-52
2022/03/23 00:54:34;;;;;;;23.85;15.05;;;;;;;;;;6155246;23;20035;-49
2022/03/23 00:56:59;;;;;;;27.25;15.30;;;;;;;;;;6154939;23;20010;-53
2022/03/23 00:59:24;;;;;;;22.30;13.95;;;;;;;;;;6154300;23;20020;-50
2022/03/23 01:01:50;;;;;;;22.05;14.38;;;;;;;;;;6153545;23;20013;-51
2022/03/23 01:04:15;;;;;;;25.35;14.10;;;;;;;;;;6153276;23;20005;-53
2022/03/23 01:06:41;;;;;;;23.98;14.35;;;;;;;;;;6153623;23;20020;-48
2022/03/23 01:09:06;;;;;;;25.83;14.07;;;;;;;;;;6154699;23;20072;-53
2022/03/23 01:11:31;;;;;;;23.17;15.02;;;;;;;;;;6153490;23;20027;-50
2022/03/23 01:13:56;;;;;;;27.05;15.23;;;;;;;;;;6153970;23;20053;-50
2022/03/23 01:16:22;;;;;;;24.17;13.68;;;;;;;;;;6154117;23;20013;-52
2022/03/23 01:18:47;;;;;;;24.63;14.30;;;;;;;;;;6155318;23;20014;-52
2022/03/23 01:21:13;;;;;;;27.65;14.85;;;;;;;;;;6154775;23;20020;-52
2022/03/23 01:23:39;;;;;;;24.15;14.07;;;;;;;;;;6156579;23;20002;-52
2022/03/23 01:26:04;;;;;;;29.30;15.00;;;;;;;;;;6155579;23;20064;-53
2022/03/23 01:28:29;;;;;;;31.67;15.45;;;;;;;;;;6155026;23;20014;-52
2022/03/23 01:30:54;;;;;;;27.83;13.30;;;;;;;;;;6155661;23;20070;-51
2022/03/23 01:33:20;;;;;;;23.02;14.10;;;;;;;;;;6156446;23;20021;-53
2022/03/23 01:35:45;;;;;;;27.95;15.30;;;;;;;;;;6155253;23;20009;-50
2022/03/23 01:38:11;;;;;;;28.17;15.52;;;;;;;;;;6156345;23;20108;-52
2022/03/23 01:40:36;;;;;;;27.48;15.70;;;;;;;;;;6155316;23;20024;-51
2022/03/23 01:43:02;;;;;;;24.02;13.80;;;;;;;;;;6155574;23;20029;-53
2022/03/23 01:45:27;;;;;;;26.73;14.60;;;;;;;;;;6155541;23;20033;-51
2022/03/23 01:47:53;;;;;;;33.17;15.98;;;;;;;;;;6156574;23;20289;-50
2022/03/23 01:50:18;;;;;;;26.10;15.25;;;;;;;;;;6168830;23;20524;-50
2022/03/23 01:52:43;;;;;;;26.48;14.60;;;;;;;;;;6186702;23;20055;-50
2022/03/23 01:55:13;;;;;;;28.27;15.70;;;;;;;;;;6184510;23;20009;-51
2022/03/23 01:57:39;;;;;;;33.67;17.02;;;;;;;;;;6185652;23;20005;-51
2022/03/23 02:00:06;;;;;;;33.88;16.25;;;;;;;;;;6185322;23;20013;-53
2022/03/23 02:02:31;;;;;;;30.50;14.68;;;;;;;;;;6185246;23;20025;-49
2022/03/23 02:04:56;;;;;;;35.55;17.48;;;;;;;;;;6184601;23;20065;-52
2022/03/23 02:07:22;;;;;;;25.83;15.60;;;;;;;;;;6185730;23;20029;-50
2022/03/23 02:09:48;;;;;;;26.50;15.55;;;;;;;;;;6185104;23;20044;-52
2022/03/23 02:12:13;;;;;;;34.72;15.55;;;;;;;;;;6185711;23;20203;-50
2022/03/23 02:14:39;;;;;;;28.90;14.73;;;;;;;;;;6184534;23;20081;-53
2022/03/23 02:17:05;;;;;;;22.85;13.88;;;;;;;;;;6184868;23;20041;-49
2022/03/23 02:19:30;;;;;;;26.88;15.52;;;;;;;;;;6177542;23;20010;-51
2022/03/23 02:21:56;;;;;;;31.73;15.20;;;;;;;;;;6184117;23;20012;-53
2022/03/23 02:24:23;;;;;;;30.10;15.48;;;;;;;;;;6185417;23;20017;-50
2022/03/23 02:26:49;;;;;;;29.58;15.43;;;;;;;;;;6184707;23;20244;-51
2022/03/23 02:29:15;;;;;;;29.13;16.23;;;;;;;;;;6183055;23;20073;-50
2022/03/23 02:31:40;;;;;;;25.85;14.50;;;;;;;;;;6185574;23;20485;-49
2022/03/23 02:34:05;;;;;;;38.95;17.10;;;;;;;;;;6183104;23;20001;-50
2022/03/23 02:36:31;;;;;;;25.02;14.90;;;;;;;;;;6185089;23;20020;-49
2022/03/23 02:38:56;;;;;;;25.75;16.33;;;;;;;;;;6185024;23;20021;-49
2022/03/23 02:41:22;;;;;;;25.50;15.60;;;;;;;;;;6182759;23;20013;-49
2022/03/23 02:43:47;;;;;;;25.13;15.38;;;;;;;;;;6185197;23;20013;-49
2022/03/23 02:46:13;;;;;;;34.45;15.88;;;;;;;;;;6183174;23;20029;-51
2022/03/23 02:48:39;;;;;;;32.75;15.05;;;;;;;;;;6184956;23;20013;-50
2022/03/23 02:51:04;;;;;;;28.08;15.07;;;;;;;;;;6183605;23;20083;-49
2022/03/23 03:01:54;;;;;;;33.55;18.02;;;;;;;;;;6182814;23;20016;-48
2022/03/23 03:04:19;;;;;;;28.08;15.43;;;;;;;;;;6184367;23;20016;-51
2022/03/23 03:06:45;;;;;;;32.30;16.55;;;;;;;;;;6185299;23;20055;-52
2022/03/23 03:09:11;;;;;;;34.10;17.30;;;;;;;;;;6183087;23;20045;-48
2022/03/23 03:11:36;;;;;;;30.55;17.02;;;;;;;;;;6185399;23;20752;-51
2022/03/23 03:14:02;;;;;;;30.80;16.55;;;;;;;;;;6184163;23;20001;-53
2022/03/23 03:16:27;;;;;;;32.17;15.70;;;;;;;;;;6185373;23;20045;-50
2022/03/23 03:18:52;;;;;;;29.25;15.82;;;;;;;;;;6183455;23;20065;-49
2022/03/23 03:21:18;;;;;;;28.60;16.15;;;;;;;;;;6184760;23;20069;-54
2022/03/23 03:23:43;;;;;;;25.75;16.83;;;;;;;;;;6184132;23;20005;-47
2022/03/23 03:26:10;;;;;;;26.35;16.08;;;;;;;;;;6182142;23;20073;-49
2022/03/23 03:28:36;;;;;;;31.42;15.98;;;;;;;;;;6183947;23;20370;-49
2022/03/23 03:31:06;;;;;;;25.67;14.98;;;;;;;;;;6181528;23;20093;-53
2022/03/23 03:33:31;;;;;;;28.42;14.32;;;;;;;;;;6177261;23;20021;-52
2022/03/23 03:35:56;;;;;;;31.27;16.13;;;;;;;;;;6182880;23;20052;-53
2022/03/23 03:38:21;;;;;;;24.30;15.27;;;;;;;;;;6184476;23;20028;-51
2022/03/23 03:40:47;;;;;;;25.20;13.82;;;;;;;;;;6184243;23;20016;-50
2022/03/23 03:43:12;;;;;;;28.92;16.25;;;;;;;;;;6184929;23;20005;-51
2022/03/23 03:45:38;;;;;;;29.55;15.18;;;;;;;;;;6183091;23;20064;-52
2022/03/23 03:48:03;;;;;;;33.78;15.93;;;;;;;;;;6185242;23;20003;-50
2022/03/23 03:50:29;;;;;;;34.83;15.45;;;;;;;;;;6183499;23;20028;-48
2022/03/23 03:52:55;;;;;;;31.27;15.90;;;;;;;;;;6184106;23;20009;-50
2022/03/23 03:55:20;;;;;;;27.80;15.30;;;;;;;;;;6184918;23;20021;-50
2022/03/23 03:57:45;;;;;;;33.75;16.67;;;;;;;;;;6184631;23;20061;-50
2022/03/23 04:00:12;;;;;;;30.77;16.67;;;;;;;;;;6183932;23;20724;-52
2022/03/23 04:02:37;;;;;;;28.20;15.73;;;;;;;;;;6183902;23;20016;-50
2022/03/23 04:05:02;;;;;;;27.05;16.23;;;;;;;;;;6184283;23;20086;-51
2022/03/23 04:07:27;;;;;;;25.45;14.10;;;;;;;;;;6184241;23;20079;-50
2022/03/23 04:09:53;;;;;;;26.50;15.55;;;;;;;;;;6183546;23;20112;-47
2022/03/23 04:12:18;;;;;;;27.52;15.70;;;;;;;;;;6183935;23;20017;-48
2022/03/23 04:14:43;;;;;;;22.25;14.40;;;;;;;;;;6183067;23;20327;-50
2022/03/23 04:17:08;;;;;;;28.02;15.98;;;;;;;;;;6185153;23;20013;-48
2022/03/23 04:19:34;;;;;;;27.52;15.40;;;;;;;;;;6155911;23;20072;-51
2022/03/23 04:21:59;;;;;;;27.83;14.40;;;;;;;;;;6184887;23;20013;-52
2022/03/23 04:24:24;;;;;;;27.90;15.50;;;;;;;;;;6183037;23;20021;-49
2022/03/23 04:26:50;;;;;;;29.30;15.25;;;;;;;;;;6181593;23;20017;-49
2022/03/23 04:29:15;;;;;;;26.27;16.58;;;;;;;;;;6182567;23;20147;-50
2022/03/23 04:31:40;;;;;;;30.52;16.33;;;;;;;;;;6185199;23;20189;-50
2022/03/23 04:34:06;;;;;;;24.23;15.00;;;;;;;;;;6183651;23;20020;-50
2022/03/23 04:36:31;;;;;;;33.17;15.48;;;;;;;;;;6184360;23;20019;-51
2022/03/23 04:38:56;;;;;;;29.70;16.13;;;;;;;;;;6183207;23;20044;-48
2022/03/23 04:41:22;;;;;;;28.00;15.30;;;;;;;;;;6184637;23;20032;-52
2022/03/23 04:43:47;;;;;;;30.58;15.23;;;;;;;;;;6183006;23;20362;-47
2022/03/23 04:46:13;;;;;;;26.83;14.93;;;;;;;;;;6184089;23;20056;-51
2022/03/23 04:48:38;;;;;;;28.38;15.57;;;;;;;;;;6182171;23;20005;-48
2022/03/23 04:51:05;;;;;;;29.13;14.70;;;;;;;;;;6182810;23;20022;-50
2022/03/23 04:53:30;;;;;;;25.13;15.30;;;;;;;;;;6181713;23;20878;-49
2022/03/23 04:55:55;;;;;;;30.02;15.18;;;;;;;;;;6182707;23;20040;-52
2022/03/23 04:58:20;;;;;;;27.40;16.52;;;;;;;;;;6179133;23;20017;-51
2022/03/23 05:00:45;;;;;;;32.05;16.73;;;;;;;;;;6182708;23;20005;-50
2022/03/23 05:03:13;;;;;;;30.65;15.52;;;;;;;;;;6178640;23;20017;-52
2022/03/23 05:05:38;;;;;;;31.42;15.35;;;;;;;;;;6178473;23;20017;-50
2022/03/23 05:08:04;;;;;;;27.75;14.77;;;;;;;;;;6178694;23;20013;-49
2022/03/23 05:10:29;;;;;;;31.63;14.70;;;;;;;;;;6177870;23;20032;-51
2022/03/23 05:12:55;;;;;;;24.88;14.25;;;;;;;;;;6179959;23;20369;-51
2022/03/23 05:15:20;;;;;;;27.35;15.38;;;;;;;;;;6177491;23;20646;-48
2022/03/23 05:17:45;;;;;;;28.02;14.80;;;;;;;;;;6178948;23;20013;-52
2022/03/23 05:20:11;;;;;;;24.67;15.32;;;;;;;;;;6177921;23;20027;-51
2022/03/23 05:22:39;;;;;;;29.38;13.82;;;;;;;;;;6178536;23;20021;-51
2022/03/23 05:25:05;;;;;;;24.48;14.68;;;;;;;;;;6176057;23;20035;-48
2022/03/23 05:27:37;;;;;;;29.55;16.27;;;;;;;;;;6176636;23;20032;-51
2022/03/23 05:30:04;;;;;;;29.90;16.83;;;;;;;;;;6152778;23;20071;-48
2022/03/23 05:32:29;;;;;;;28.55;16.38;;;;;;;;;;6178860;23;20478;-49
2022/03/23 05:34:55;;;;;;;28.15;15.57;;;;;;;;;;6181182;23;20013;-52
2022/03/23 05:37:20;;;;;;;29.65;15.27;;;;;;;;;;6180279;23;20009;-50
2022/03/23 05:39:46;;;;;;;33.33;15.63;;;;;;;;;;6184006;23;20056;-50
2022/03/23 05:42:11;;;;;;;30.40;16.23;;;;;;;;;;6179163;23;20032;-50
2022/03/23 05:44:36;;;;;;;31.10;16.88;;;;;;;;;;6182967;23;20013;-51
2022/03/23 05:47:02;;;;;;;29.08;15.93;;;;;;;;;;6181762;23;20013;-49
2022/03/23 05:49:27;;;;;;;26.83;15.55;;;;;;;;;;6181616;23;20683;-53
2022/03/23 05:51:53;;;;;;;31.00;15.75;;;;;;;;;;6180461;23;20046;-48
2022/03/23 05:54:19;;;;;;;30.75;17.63;;;;;;;;;;6182227;23;20032;-49
2022/03/23 05:56:44;;;;;;;33.38;16.65;;;;;;;;;;6175921;23;20005;-52
2022/03/23 05:59:09;;;;;;;38.38;17.05;;;;;;;;;;6178694;23;20040;-53
2022/03/23 06:01:35;;;;;;;35.42;17.23;;;;;;;;;;6177565;23;20028;-51
2022/03/23 06:04:01;;;;;;;34.72;17.63;;;;;;;;;;6176238;23;20374;-50
2022/03/23 06:06:26;;;;;;;35.33;18.23;;;;;;;;;;6179684;23;20073;-51
2022/03/23 06:08:51;;;;;;;35.25;18.02;;;;;;;;;;6181144;23;20057;-50
2022/03/23 06:11:17;;;;;;;34.70;18.02;;;;;;;;;;6180987;23;20021;-53
2022/03/23 06:13:44;;;;;;;36.08;18.05;;;;;;;;;;6176261;23;20025;-50
2022/03/23 06:16:09;;;;;;;34.72;17.45;;;;;;;;;;6178997;23;20055;-48
2022/03/23 06:18:35;;;;;;;32.53;16.92;;;;;;;;;;6174311;23;20009;-51
2022/03/23 06:21:00;;;;;;;34.60;17.35;;;;;;;;;;6182144;23;20450;-52
2022/03/23 06:23:26;;;;;;;33.65;16.27;;;;;;;;;;6153542;23;20029;-51
2022/03/23 06:25:51;;;;;;;41.70;16.40;;;;;;;;;;6180620;23;20020;-47
2022/03/23 06:28:16;;;;;;;29.38;16.75;;;;;;;;;;6182011;23;20017;-49
2022/03/23 06:30:42;;;;;;;32.75;18.20;;;;;;;;;;6183316;23;20024;-50
2022/03/23 06:33:07;;;;;;;37.35;17.45;;;;;;;;;;6183750;23;20024;-50
2022/03/23 06:35:33;;;;;;;33.17;18.25;;;;;;;;;;6183361;23;20025;-49
2022/03/23 06:37:59;;;;;;;38.85;21.02;;;;;;;;;;6183547;23;20024;-48
2022/03/23 06:40:24;;;;;;;32.05;18.17;;;;;;;;;;6181653;23;20013;-51
2022/03/23 06:42:49;;;;;;;38.30;19.20;;;;;;;;;;6184268;23;20024;-52
2022/03/23 06:45:15;;;;;;;33.03;17.90;;;;;;;;;;6182917;23;20972;-50
2022/03/23 06:47:40;;;;;;;37.88;19.08;;;;;;;;;;6183962;23;20008;-52
2022/03/23 06:50:07;;;;;;;35.53;19.27;;;;;;;;;;6178347;23;20029;-52
2022/03/23 06:52:32;;;;;;;40.40;20.23;;;;;;;;;;6180082;23;20021;-49
2022/03/23 06:54:58;;;;;;;42.03;21.45;;;;;;;;;;6180216;23;20060;-50
2022/03/23 06:57:23;;;;;;;35.35;18.88;;;;;;;;;;6179169;23;20024;-50
2022/03/23 06:59:48;;;;;;;37.88;19.95;;;;;;;;;;6177607;23;20013;-54
2022/03/23 07:02:14;;;;;;;43.83;20.65;;;;;;;;;;6173631;23;20005;-52
2022/03/23 07:04:39;;;;;;;39.78;21.42;;;;;;;;;;6169090;23;20017;-49
2022/03/23 07:07:04;;;;;;;59.00;24.25;;;;;;;;;;6162938;23;20009;-49
2022/03/23 07:09:32;;;;;;;46.72;21.13;;;;;;;;;;6175010;23;20109;-53
2022/03/23 07:12:02;;;;;;;43.35;21.92;;;;;;;;;;6179702;23;20032;-52
2022/03/23 07:14:28;;;;;;;42.03;22.15;;;;;;;;;;6178313;23;20028;-51
2022/03/23 07:16:53;;;;;;;45.40;21.63;;;;;;;;;;6152260;23;20035;-53
2022/03/23 07:19:19;;;;;;;43.53;22.60;;;;;;;;;;6177954;23;20063;-52
2022/03/23 07:21:44;;;;;;;45.33;23.45;;;;;;;;;;6153194;23;20005;-51
2022/03/23 07:24:10;;;;;;;47.50;23.85;;;;;;;;;;6179197;23;20013;-50
2022/03/23 07:26:35;;;;;;;46.00;23.83;;;;;;;;;;6178339;23;20013;-49
2022/03/23 07:29:01;;;;;;;53.63;25.20;;;;;;;;;;6178454;23;20036;-54
2022/03/23 07:31:27;;;;;;;56.92;28.67;;;;;;;;;;6168697;23;20037;-51
2022/03/23 07:33:53;;;;;;;57.38;27.65;;;;;;;;;;6158813;23;20021;-49
2022/03/23 07:36:18;;;;;;;54.25;26.55;;;;;;;;;;6168480;23;20016;-53
2022/03/23 07:38:44;;;;;;;51.58;27.27;;;;;;;;;;6174662;23;20039;-52
2022/03/23 07:41:09;;;;;;;60.90;29.45;;;;;;;;;;6179629;23;20013;-52
2022/03/23 07:43:34;;;;;;;62.55;30.05;;;;;;;;;;6181731;23;20526;-52
2022/03/23 07:45:59;;;;;;;69.82;36.08;;;;;;;;;;6181980;23;20009;-49
2022/03/23 07:48:25;;;;;;;64.88;32.95;;;;;;;;;;6183481;23;20036;-52
2022/03/23 07:50:51;;;;;;;71.72;36.13;;;;;;;;;;6182029;23;20025;-52
2022/03/23 07:53:16;;;;;;;75.25;36.50;;;;;;;;;;6181602;23;20009;-55
2022/03/23 07:55:41;;;;;;;73.25;35.63;;;;;;;;;;6183748;23;20040;-55
2022/03/23 07:58:07;;;;;;;87.80;37.30;;;;;;;;;;6179317;23;20017;-53
2022/03/23 08:00:33;;;;;;;71.00;36.55;;;;;;;;;;6179918;23;20005;-53
2022/03/23 08:02:58;;;;;;;70.78;36.63;;;;;;;;;;6154245;23;20049;-52
2022/03/23 08:05:25;;;;;;;73.65;37.30;;;;;;;;;;6182531;23;20497;-53
2022/03/23 08:07:50;;;;;;;77.47;37.35;;;;;;;;;;6172381;23;20009;-53
2022/03/23 08:10:15;;;;;;;80.63;37.50;;;;;;;;;;6180724;23;20037;-53
2022/03/23 08:12:40;;;;;;;78.30;37.65;;;;;;;;;;6181445;23;20036;-53
2022/03/23 08:15:07;;;;;;;82.75;37.38;;;;;;;;;;6177546;23;20012;-55
2022/03/23 08:17:32;;;;;;;74.40;37.47;;;;;;;;;;6176227;23;20424;-52
2022/03/23 08:22:41;;;;;;;74.05;35.42;;;;;;;;;;6177030;23;20016;-52
2022/03/23 08:25:07;;;;;;;67.53;34.55;;;;;;;;;;6179107;23;20028;-54
2022/03/23 08:27:32;;;;;;;71.90;36.15;;;;;;;;;;6178160;23;20013;-52
2022/03/23 08:29:57;;;;;;;83.07;38.72;;;;;;;;;;6177395;23;20104;-56
2022/03/23 08:32:22;;;;;;;69.07;36.15;;;;;;;;;;6170649;23;20531;-52
2022/03/23 08:34:48;;;;;;;78.20;36.25;;;;;;;;;;6174987;23;20028;-54
2022/03/23 08:37:14;;;;;;;61.80;33.08;;;;;;;;;;6155979;23;20068;-56
2022/03/23 08:39:39;;;;;;;61.15;33.95;;;;;;;;;;6181571;23;20009;-53
2022/03/23 08:42:05;;;;;;;65.88;34.88;;;;;;;;;;6180632;23;20028;-53
2022/03/23 08:44:31;;;;;;;70.38;36.13;;;;;;;;;;6184239;23;20021;-54
2022/03/23 08:46:56;;;;;;;76.85;36.35;;;;;;;;;;6179641;23;20412;-54
2022/03/23 08:49:21;;;;;;;69.75;35.85;;;;;;;;;;6179844;23;20033;-54
2022/03/23 08:51:46;;;;;;;75.90;35.83;;;;;;;;;;6183250;23;20005;-55
2022/03/23 08:54:12;;;;;;;78.40;37.88;;;;;;;;;;6182905;23;20023;-52
2022/03/23 08:56:37;;;;;;;67.07;34.30;;;;;;;;;;6180290;23;20061;-52
2022/03/23 08:59:02;;;;;;;75.25;35.72;;;;;;;;;;6184541;23;20005;-52
2022/03/23 09:01:28;;;;;;;63.97;33.42;;;;;;;;;;6180938;23;20016;-51
2022/03/23 09:03:53;;;;;;;68.75;36.28;;;;;;;;;;6184385;23;20057;-53
2022/03/23 09:06:19;;;;;;;71.18;33.70;;;;;;;;;;6181973;23;20024;-54
2022/03/23 09:08:44;;;;;;;67.25;33.45;;;;;;;;;;6183830;23;20019;-49
2022/03/23 09:11:09;;;;;;;72.55;36.58;;;;;;;;;;6153278;23;20397;-51
2022/03/23 09:13:34;;;;;;;66.65;30.83;;;;;;;;;;6181810;23;20023;-55
2022/03/23 09:16:00;;;;;;;65.82;33.83;;;;;;;;;;6180706;23;20013;-53
2022/03/23 09:18:28;;;;;;;73.13;35.55;;;;;;;;;;6183214;23;20012;-52
2022/03/23 09:20:54;;;;;;;63.65;35.00;;;;;;;;;;6181985;23;20079;-55
2022/03/23 09:23:19;;;;;;;60.67;32.25;;;;;;;;;;6183107;23;20029;-52
2022/03/23 09:25:44;;;;;;;65.20;31.27;;;;;;;;;;6155965;23;20013;-53
2022/03/23 09:28:11;;;;;;;61.72;31.52;;;;;;;;;;6185037;23;20036;-50
2022/03/23 09:30:37;;;;;;;69.45;33.38;;;;;;;;;;6179382;23;20017;-52
2022/03/23 09:33:02;;;;;;;65.22;31.63;;;;;;;;;;6182652;23;20057;-54
2022/03/23 09:35:27;;;;;;;58.95;32.85;;;;;;;;;;6180373;23;20028;-55
2022/03/23 09:37:53;;;;;;;57.22;29.25;;;;;;;;;;6158160;23;20002;-53
2022/03/23 09:40:24;;;;;;;60.00;30.83;;;;;;;;;;6179374;23;20495;-52
2022/03/23 09:42:50;;;;;;;57.00;29.98;;;;;;;;;;6183403;23;20040;-52
2022/03/23 09:45:29;;;;;;;61.83;30.02;;;;;;;;;;6179321;23;20009;-52
2022/03/23 09:47:55;;;;;;;55.13;28.98;;;;;;;;;;6184767;23;20020;-50
2022/03/23 09:50:20;;;;;;;57.42;28.17;;;;;;;;;;6182175;23;20056;-50
2022/03/23 09:52:46;;;;;;;65.18;29.90;;;;;;;;;;6182718;23;20013;-54
2022/03/23 09:55:11;;;;;;;56.28;29.27;;;;;;;;;;6181670;23;20071;-53
2022/03/23 09:57:37;;;;;;;55.50;29.00;;;;;;;;;;6181744;23;20013;-52
2022/03/23 10:00:03;;;;;;;58.45;30.42;;;;;;;;;;6185492;23;20015;-53
2022/03/23 10:02:48;;;;;;;55.60;28.42;;;;;;;;;;6181787;23;20016;-52
2022/03/23 10:05:25;;;;;;;55.28;28.98;;;;;;;;;;6185006;23;20017;-52
2022/03/23 10:08:09;;;;;;;50.58;28.10;;;;;;;;;;6184693;23;20019;-54
2022/03/23 10:10:52;;;;;;;58.25;30.00;;;;;;;;;;6181249;23;20065;-52
2022/03/23 10:13:36;;;;;;;44.90;27.80;;;;;;;;;;6184074;23;20072;-50
2022/03/23 10:16:20;;;;;;;54.15;29.40;;;;;;;;;;6184984;23;20020;-52
2022/03/23 10:19:01;;;;;;;53.78;28.05;;;;;;;;;;6182265;23;20069;-54
2022/03/23 10:21:27;;;;;;;46.95;27.70;;;;;;;;;;6183600;23;20013;-54
2022/03/23 10:23:52;;;;;;;51.63;27.90;;;;;;;;;;6182598;23;20009;-53
2022/03/23 10:26:18;;;;;;;44.85;25.33;;;;;;;;;;6183089;23;20410;-52
2022/03/23 10:28:43;;;;;;;46.05;25.13;;;;;;;;;;6182948;23;20013;-52
2022/03/23 10:31:19;;;;;;;44.15;23.20;;;;;;;;;;6179660;23;20020;-51
2022/03/23 10:33:55;;;;;;;36.72;21.42;;;;;;;;;;6182251;23;20016;-52
2022/03/23 10:36:21;;;;;;;37.08;19.02;;;;;;;;;;6180940;23;20105;-53
2022/03/23 10:38:47;;;;;;;32.05;16.60;;;;;;;;;;6185014;23;20028;-52
2022/03/23 10:41:12;;;;;;;29.77;16.33;;;;;;;;;;6182704;23;20733;-53
2022/03/23 10:43:38;;;;;;;35.55;18.95;;;;;;;;;;6182908;23;20080;-52
2022/03/23 10:46:11;;;;;;;30.92;17.20;;;;;;;;;;6185056;23;20013;-56
2022/03/23 10:48:36;;;;;;;28.05;16.85;;;;;;;;;;6182548;23;20384;-51
2022/03/23 10:51:02;;;;;;;37.88;18.25;;;;;;;;;;6185033;23;20043;-53
2022/03/23 10:53:32;;;;;;;32.35;17.85;;;;;;;;;;6181841;23;20020;-53
2022/03/23 10:55:58;;;;;;;29.27;16.45;;;;;;;;;;6184698;23;20068;-51
2022/03/23 10:58:24;;;;;;;27.65;15.48;;;;;;;;;;6155609;23;20364;-53
2022/03/23 11:00:50;;;;;;;22.00;13.57;;;;;;;;;;6185303;23;20009;-52
2022/03/23 11:03:15;;;;;;;21.13;12.20;;;;;;;;;;6182973;23;20009;-55
2022/03/23 11:05:43;;;;;;;12.27;7.65;;;;;;;;;;6183707;23;20618;-53
2022/03/23 11:08:13;;;;;;;18.23;10.80;;;;;;;;;;6183861;23;20013;-53
2022/03/23 11:16:21;;;;;;;19.60;10.27;;;;;;;;;;6181969;23;20055;-55
2022/03/23 11:18:47;;;;;;;;;;;;;;;;;;6153672;23;20009;-53
2022/03/23 11:21:12;;;;;;;17.02;11.32;;;;;;;;;;6179002;23;19944;-53
2022/03/23 11:23:38;;;;;;;14.07;9.63;;;;;;;;;;6183345;23;20083;-52
2022/03/23 11:26:08;;;;;;;19.38;11.75;;;;;;;;;;6182832;23;20017;-54
2022/03/23 11:28:40;;;;;;;12.85;8.73;;;;;;;;;;6151295;23;20013;-52
2022/03/23 11:31:07;;;;;;;15.02;9.35;;;;;;;;;;6183242;23;20017;-53
2022/03/23 11:33:35;;;;;;;16.42;8.88;;;;;;;;;;6181860;23;20013;-54
2022/03/23 11:36:01;;;;;;;14.65;9.30;;;;;;;;;;6183430;23;20036;-51
2022/03/23 11:38:27;;;;;;;13.90;8.93;;;;;;;;;;6183213;23;20017;-49
2022/03/23 11:40:53;;;;;;;21.20;10.10;;;;;;;;;;6183962;23;20017;-52
2022/03/23 11:43:20;;;;;;;16.50;10.13;;;;;;;;;;6183687;23;20032;-54
2022/03/23 11:45:46;;;;;;;20.42;10.30;;;;;;;;;;6183159;23;20036;-54
2022/03/23 11:48:11;;;;;;;26.45;13.13;;;;;;;;;;6183721;23;20009;-52
2022/03/23 11:50:56;;;;;;;21.43;11.97;;;;;;;;;;6182918;23;20029;-53
2022/03/23 11:53:28;;;;;;;14.45;7.57;;;;;;;;;;6181260;23;20314;-56
2022/03/23 11:55:54;;;;;;;11.52;7.43;;;;;;;;;;6184908;23;20204;-53
2022/03/23 11:58:23;;;;;;;13.50;7.82;;;;;;;;;;6178904;23;20025;-53
2022/03/23 12:00:52;;;;;;;12.98;7.43;;;;;;;;;;6175740;23;20072;-53
2022/03/23 12:03:36;;;;;;;14.23;7.55;;;;;;;;;;6179538;23;20032;-54
2022/03/23 12:06:09;;;;;;;12.68;8.02;;;;;;;;;;6183553;23;20013;-53
2022/03/23 12:08:50;;;;;;;14.63;9.48;;;;;;;;;;6180775;23;20011;-53
2022/03/23 12:11:34;;;;;;;13.82;7.50;;;;;;;;;;6176222;23;20024;-53
2022/03/23 12:13:59;;;;;;;8.52;6.03;;;;;;;;;;6176885;23;20021;-55
2022/03/23 12:16:43;;;;;;;9.20;5.55;;;;;;;;;;6152840;23;20037;-52
2022/03/23 12:19:10;;;;;;;8.57;4.93;;;;;;;;;;6181896;23;20043;-53
2022/03/23 12:21:43;;;;;;;11.48;6.15;;;;;;;;;;6180535;23;20043;-50
2022/03/23 12:24:17;;;;;;;9.63;6.32;;;;;;;;;;6183863;23;20013;-54
2022/03/23 12:26:48;;;;;;;12.15;6.85;;;;;;;;;;6180902;23;20009;-49
2022/03/23 12:29:36;;;;;;;11.52;6.82;;;;;;;;;;6180990;23;20032;-53
2022/03/23 12:32:06;;;;;;;11.52;6.28;;;;;;;;;;6181412;23;20056;-50
2022/03/23 12:34:31;;;;;;;14.48;6.57;;;;;;;;;;6181906;23;20017;-54
2022/03/23 12:37:06;;;;;;;9.63;5.95;;;;;;;;;;6183441;23;20079;-50
2022/03/23 12:39:32;;;;;;;10.23;5.00;;;;;;;;;;6181204;23;20423;-56
2022/03/23 12:42:17;;;;;;;11.88;6.07;;;;;;;;;;6182063;23;20021;-53
2022/03/23 12:44:45;;;;;;;9.65;6.38;;;;;;;;;;6183585;23;20052;-48
2022/03/23 12:47:21;;;;;;;12.35;7.15;;;;;;;;;;6181496;23;20060;-53
2022/03/23 12:58:09;;;;;;;9.65;6.50;;;;;;;;;;6184697;23;20069;-51
2022/03/23 13:00:40;;;;;;;13.27;7.65;;;;;;;;;;6154733;23;20469;-53
2022/03/23 13:03:05;;;;;;;11.77;7.47;;;;;;;;;;6157498;23;20016;-52
2022/03/23 13:05:31;;;;;;;16.13;6.83;;;;;;;;;;6176574;23;20005;-52
2022/03/23 13:07:57;;;;;;;8.30;5.10;;;;;;;;;;6180410;23;20431;-53
2022/03/23 13:10:24;;;;;;;9.73;5.90;;;;;;;;;;6176796;23;20021;-50
2022/03/23 13:12:50;;;;;;;13.20;7.05;;;;;;;;;;6180394;23;20015;-55
2022/03/23 13:15:16;;;;;;;12.15;7.03;;;;;;;;;;6177353;23;20448;-53
2022/03/23 13:17:42;;;;;;;9.10;6.38;;;;;;;;;;6179065;23;20023;-54
2022/03/23 13:20:09;;;;;;;12.60;6.90;;;;;;;;;;6177805;23;20013;-52
2022/03/23 13:22:38;;;;;;;9.40;5.78;;;;;;;;;;6150566;23;20091;-52
2022/03/23 13:25:04;;;;;;;14.30;7.50;;;;;;;;;;6176104;23;20009;-52
2022/03/23 13:27:30;;;;;;;13.35;7.32;;;;;;;;;;6178501;23;20522;-53
2022/03/23 13:29:59;;;;;;;15.82;8.02;;;;;;;;;;6171131;23;20021;-54
2022/03/23 13:32:36;;;;;;;12.13;7.13;;;;;;;;;;6143923;23;20035;-50
2022/03/23 13:35:01;;;;;;;15.18;7.60;;;;;;;;;;6154020;23;20070;-52
2022/03/23 13:37:27;;;;;;;16.13;9.25;;;;;;;;;;6177195;23;20013;-53
2022/03/23 13:39:52;;;;;;;14.07;7.30;;;;;;;;;;6174797;23;20013;-48
2022/03/23 13:45:05;;;;;;;14.57;8.98;;;;;;;;;;6165593;23;20048;-51
2022/03/23 13:47:38;;;;;;;14.05;8.32;;;;;;;;;;6170245;23;20005;-52
2022/03/23 13:50:04;;;;;;;15.00;8.30;;;;;;;;;;6176800;23;20035;-55
2022/03/23 13:52:30;;;;;;;12.13;7.90;;;;;;;;;;6178674;23;20013;-51
2022/03/23 13:54:56;;;;;;;15.00;8.88;;;;;;;;;;6173238;23;20076;-51
2022/03/23 13:57:22;;;;;;;14.73;8.60;;;;;;;;;;6170260;23;20005;-54
2022/03/23 13:59:47;;;;;;;12.88;8.65;;;;;;;;;;6178161;23;20067;-54
2022/03/23 14:02:16;;;;;;;16.27;8.68;;;;;;;;;;6178406;23;20139;-54
2022/03/23 14:04:42;;;;;;;15.50;9.32;;;;;;;;;;6176241;23;20029;-55
2022/03/23 14:07:08;;;;;;;25.73;9.40;;;;;;;;;;6178906;23;20064;-51
2022/03/23 14:09:37;;;;;;;13.90;7.95;;;;;;;;;;6176033;23;20014;-52
2022/03/23 14:12:05;;;;;;;12.02;7.38;;;;;;;;;;6179631;23;20013;-53
2022/03/23 14:14:32;;;;;;;12.50;6.63;;;;;;;;;;6152613;22;20025;-54
2022/03/23 14:17:01;;;;;;;16.10;7.60;;;;;;;;;;6159888;23;20068;-56
2022/03/23 14:19:28;;;;;;;16.65;8.85;;;;;;;;;;6171691;23;20061;-56
2022/03/23 14:21:54;;;;;;;13.00;8.15;;;;;;;;;;6196812;23;20908;-55
2022/03/23 14:24:20;;;;;;;11.98;6.75;;;;;;;;;;6171148;23;20017;-54
2022/03/23 14:26:45;;;;;;;11.65;6.63;;;;;;;;;;6175543;23;20020;-55
2022/03/23 14:29:20;;;;;;;13.05;6.88;;;;;;;;;;6173252;23;20024;-54
2022/03/23 14:31:45;;;;;;;11.48;6.55;;;;;;;;;;6175630;23;20584;-55
2022/03/23 14:34:10;;;;;;;10.50;6.97;;;;;;;;;;6174882;23;20064;-56
2022/03/23 14:36:37;;;;;;;13.10;6.40;;;;;;;;;;6172107;23;20029;-54
2022/03/23 14:39:15;;;;;;;14.57;7.25;;;;;;;;;;6175124;23;20087;-57
2022/03/23 14:41:53;;;;;;;12.27;7.53;;;;;;;;;;6148996;23;20027;-57
2022/03/23 14:44:30;;;;;;;9.82;6.50;;;;;;;;;;6172729;23;20013;-56
2022/03/23 14:46:59;;;;;;;12.25;7.40;;;;;;;;;;6176851;23;20040;-54